sensor_id;sensor_type;location;lat;lon;timestamp;temperature;humidity
69359;HTU21D;56520;49.066;8.660;2022-09-12T00:00:42;12.95;90.58
69359;HTU21D;56520;49.066;8.660;2022-09-12T00:03:07;12.92;90.66
69359;HTU21D;56520;49.066;8.660;2022-09-12T00:05:33;12.90;90.71
69359;HTU21D;56520;49.066;8.660;2022-09-12T00:07:59;12.89;90.71
69359;HTU21D;56520;49.066;8.660;2022-09-12T00:10:25;12.85;90.73
69359;HTU21D;56520;49.066;8.660;2022-09-12T00:12:51;12.84;90.70
69359;HTU21D;56520;49.066;8.660;2022-09-12T00:15:17;12.78;90.76
69359;HTU21D;56520;49.066;8.660;2022-09-12T00:17:43;12.77;90.85
69359;HTU21D;56520;49.066;8.660;2022-09-12T00:20:09;12.76;90.92
69359;HTU21D;56520;49.066;8.660;2022-09-12T00:22:35;12.75;90.89
69359;HTU21D;56520;49.066;8.660;2022-09-12T00:25:01;12.75;90.98
69359;HTU21D;56520;49.066;8.660;2022-09-12T00:27:26;12.73;91.02
69359;HTU21D;56520;49.066;8.660;2022-09-12T00:29:52;12.70;90.99
69359;HTU21D;56520;49.066;8.660;2022-09-12T00:32:19;12.64;90.95
69359;HTU21D;56520;49.066;8.660;2022-09-12T00:34:44;12.62;91.01
69359;HTU21D;56520;49.066;8.660;2022-09-12T00:37:10;12.60;91.07
69359;HTU21D;56520;49.066;8.660;2022-09-12T00:39:35;12.59;91.11
69359;HTU21D;56520;49.066;8.660;2022-09-12T00:42:01;12.56;91.09
69359;HTU21D;56520;49.066;8.660;2022-09-12T00:49:56;12.48;91.16
69359;HTU21D;56520;49.066;8.660;2022-09-12T00:55:20;12.43;91.21
69359;HTU21D;56520;49.066;8.660;2022-09-12T00:58:18;12.40;91.27
69359;HTU21D;56520;49.066;8.660;2022-09-12T01:00:46;12.38;91.27
69359;HTU21D;56520;49.066;8.660;2022-09-12T01:03:13;12.35;91.31
69359;HTU21D;56520;49.066;8.660;2022-09-12T01:05:43;12.34;91.37
69359;HTU21D;56520;49.066;8.660;2022-09-12T01:08:11;12.33;91.37
69359;HTU21D;56520;49.066;8.660;2022-09-12T01:10:39;12.29;91.37
69359;HTU21D;56520;49.066;8.660;2022-09-12T01:13:07;12.27;91.39
69359;HTU21D;56520;49.066;8.660;2022-09-12T01:15:35;12.25;91.41
69359;HTU21D;56520;49.066;8.660;2022-09-12T01:18:28;12.21;91.38
69359;HTU21D;56520;49.066;8.660;2022-09-12T01:34:25;12.07;91.66
69359;HTU21D;56520;49.066;8.660;2022-09-12T01:40:02;12.03;91.68
69359;HTU21D;56520;49.066;8.660;2022-09-12T01:45:27;11.99;91.76
69359;HTU21D;56520;49.066;8.660;2022-09-12T01:48:19;11.98;91.76
69359;HTU21D;56520;49.066;8.660;2022-09-12T01:50:52;11.97;91.76
69359;HTU21D;56520;49.066;8.660;2022-09-12T01:53:26;11.98;91.85
69359;HTU21D;56520;49.066;8.660;2022-09-12T01:56:01;11.97;91.89
69359;HTU21D;56520;49.066;8.660;2022-09-12T01:58:40;11.94;91.92
69359;HTU21D;56520;49.066;8.660;2022-09-12T02:01:15;11.94;91.99
69359;HTU21D;56520;49.066;8.660;2022-09-12T02:03:47;11.97;92.10
69359;HTU21D;56520;49.066;8.660;2022-09-12T02:06:18;11.98;92.09
69359;HTU21D;56520;49.066;8.660;2022-09-12T02:08:53;11.94;92.05
69359;HTU21D;56520;49.066;8.660;2022-09-12T02:11:20;11.92;92.08
69359;HTU21D;56520;49.066;8.660;2022-09-12T02:13:54;11.91;92.08
69359;HTU21D;56520;49.066;8.660;2022-09-12T02:16:25;11.89;92.15
69359;HTU21D;56520;49.066;8.660;2022-09-12T02:18:56;11.90;92.24
69359;HTU21D;56520;49.066;8.660;2022-09-12T02:21:24;11.88;92.25
69359;HTU21D;56520;49.066;8.660;2022-09-12T02:23:56;11.88;92.23
69359;HTU21D;56520;49.066;8.660;2022-09-12T02:26:36;11.86;92.27
69359;HTU21D;56520;49.066;8.660;2022-09-12T02:29:05;11.85;92.25
69359;HTU21D;56520;49.066;8.660;2022-09-12T02:31:48;11.83;92.33
69359;HTU21D;56520;49.066;8.660;2022-09-12T02:39:56;11.78;92.32
69359;HTU21D;56520;49.066;8.660;2022-09-12T02:42:23;11.76;92.30
69359;HTU21D;56520;49.066;8.660;2022-09-12T02:44:51;11.73;92.33
69359;HTU21D;56520;49.066;8.660;2022-09-12T02:47:41;11.71;92.39
69359;HTU21D;56520;49.066;8.660;2022-09-12T02:50:08;11.68;92.39
69359;HTU21D;56520;49.066;8.660;2022-09-12T02:52:34;11.64;92.40
69359;HTU21D;56520;49.066;8.660;2022-09-12T02:55:02;11.64;92.54
69359;HTU21D;56520;49.066;8.660;2022-09-12T02:57:29;11.69;92.64
69359;HTU21D;56520;49.066;8.660;2022-09-12T02:59:58;11.69;92.66
69359;HTU21D;56520;49.066;8.660;2022-09-12T03:21:57;11.49;92.52
69359;HTU21D;56520;49.066;8.660;2022-09-12T03:24:36;11.46;92.48
69359;HTU21D;56520;49.066;8.660;2022-09-12T03:30:09;11.39;92.46
69359;HTU21D;56520;49.066;8.660;2022-09-12T03:32:46;11.37;92.44
69359;HTU21D;56520;49.066;8.660;2022-09-12T03:35:13;11.34;92.50
69359;HTU21D;56520;49.066;8.660;2022-09-12T03:37:39;11.32;92.52
69359;HTU21D;56520;49.066;8.660;2022-09-12T03:40:06;11.30;92.53
69359;HTU21D;56520;49.066;8.660;2022-09-12T03:42:32;11.27;92.53
69359;HTU21D;56520;49.066;8.660;2022-09-12T03:44:57;11.26;92.54
69359;HTU21D;56520;49.066;8.660;2022-09-12T03:47:23;11.24;92.51
69359;HTU21D;56520;49.066;8.660;2022-09-12T03:49:48;11.19;92.53
69359;HTU21D;56520;49.066;8.660;2022-09-12T03:52:14;11.15;92.53
69359;HTU21D;56520;49.066;8.660;2022-09-12T03:54:39;11.13;92.55
69359;HTU21D;56520;49.066;8.660;2022-09-12T03:57:04;11.11;92.60
69359;HTU21D;56520;49.066;8.660;2022-09-12T03:59:31;11.12;92.66
69359;HTU21D;56520;49.066;8.660;2022-09-12T04:01:56;11.11;92.65
69359;HTU21D;56520;49.066;8.660;2022-09-12T04:04:22;11.10;92.63
69359;HTU21D;56520;49.066;8.660;2022-09-12T04:06:47;11.09;92.67
69359;HTU21D;56520;49.066;8.660;2022-09-12T04:09:12;11.10;92.68
69359;HTU21D;56520;49.066;8.660;2022-09-12T04:11:38;11.08;92.69
69359;HTU21D;56520;49.066;8.660;2022-09-12T04:14:04;11.03;92.71
69359;HTU21D;56520;49.066;8.660;2022-09-12T04:16:29;11.03;92.77
69359;HTU21D;56520;49.066;8.660;2022-09-12T04:18:54;11.04;92.78
69359;HTU21D;56520;49.066;8.660;2022-09-12T04:21:20;11.02;92.77
69359;HTU21D;56520;49.066;8.660;2022-09-12T04:23:46;11.01;92.73
69359;HTU21D;56520;49.066;8.660;2022-09-12T04:26:13;10.99;92.69
69359;HTU21D;56520;49.066;8.660;2022-09-12T04:28:40;10.98;92.70
69359;HTU21D;56520;49.066;8.660;2022-09-12T04:31:10;10.96;92.71
69359;HTU21D;56520;49.066;8.660;2022-09-12T04:33:37;10.93;92.71
69359;HTU21D;56520;49.066;8.660;2022-09-12T04:36:09;10.89;92.71
69359;HTU21D;56520;49.066;8.660;2022-09-12T04:38:35;10.89;92.75
69359;HTU21D;56520;49.066;8.660;2022-09-12T04:43:36;10.88;92.78
69359;HTU21D;56520;49.066;8.660;2022-09-12T04:46:09;10.86;92.73
69359;HTU21D;56520;49.066;8.660;2022-09-12T04:48:35;10.85;92.70
69359;HTU21D;56520;49.066;8.660;2022-09-12T04:51:18;10.83;92.72
69359;HTU21D;56520;49.066;8.660;2022-09-12T04:53:48;10.81;92.72
69359;HTU21D;56520;49.066;8.660;2022-09-12T04:56:14;10.79;92.77
69359;HTU21D;56520;49.066;8.660;2022-09-12T04:58:39;10.77;92.81
69359;HTU21D;56520;49.066;8.660;2022-09-12T05:01:10;10.77;92.86
69359;HTU21D;56520;49.066;8.660;2022-09-12T05:03:36;10.78;92.93
69359;HTU21D;56520;49.066;8.660;2022-09-12T05:06:09;10.79;93.00
69359;HTU21D;56520;49.066;8.660;2022-09-12T05:08:35;10.81;93.03
69359;HTU21D;56520;49.066;8.660;2022-09-12T05:11:04;10.82;93.02
69359;HTU21D;56520;49.066;8.660;2022-09-12T05:13:31;10.82;93.01
69359;HTU21D;56520;49.066;8.660;2022-09-12T05:15:58;10.83;93.01
69359;HTU21D;56520;49.066;8.660;2022-09-12T05:18:24;10.82;93.01
69359;HTU21D;56520;49.066;8.660;2022-09-12T05:20:53;10.81;92.94
69359;HTU21D;56520;49.066;8.660;2022-09-12T05:23:20;10.81;92.96
69359;HTU21D;56520;49.066;8.660;2022-09-12T05:25:53;10.82;93.01
69359;HTU21D;56520;49.066;8.660;2022-09-12T05:28:19;10.83;93.07
69359;HTU21D;56520;49.066;8.660;2022-09-12T05:30:45;10.83;93.04
69359;HTU21D;56520;49.066;8.660;2022-09-12T05:33:11;10.83;93.02
69359;HTU21D;56520;49.066;8.660;2022-09-12T05:35:37;10.83;93.00
69359;HTU21D;56520;49.066;8.660;2022-09-12T05:38:03;10.81;93.03
69359;HTU21D;56520;49.066;8.660;2022-09-12T05:40:30;10.84;93.14
69359;HTU21D;56520;49.066;8.660;2022-09-12T05:42:55;10.88;93.27
69359;HTU21D;56520;49.066;8.660;2022-09-12T05:45:21;10.92;93.31
69359;HTU21D;56520;49.066;8.660;2022-09-12T05:47:47;10.97;93.37
69359;HTU21D;56520;49.066;8.660;2022-09-12T05:50:13;10.99;93.39
69359;HTU21D;56520;49.066;8.660;2022-09-12T05:52:38;11.03;93.43
69359;HTU21D;56520;49.066;8.660;2022-09-12T05:55:04;11.11;93.55
69359;HTU21D;56520;49.066;8.660;2022-09-12T05:57:30;11.18;93.55
69359;HTU21D;56520;49.066;8.660;2022-09-12T05:59:55;11.22;93.53
69359;HTU21D;56520;49.066;8.660;2022-09-12T06:02:21;11.27;93.51
69359;HTU21D;56520;49.066;8.660;2022-09-12T06:04:46;11.31;93.49
69359;HTU21D;56520;49.066;8.660;2022-09-12T06:07:12;11.36;93.53
69359;HTU21D;56520;49.066;8.660;2022-09-12T06:09:37;11.41;93.59
69359;HTU21D;56520;49.066;8.660;2022-09-12T06:12:03;11.48;93.60
69359;HTU21D;56520;49.066;8.660;2022-09-12T06:14:29;11.55;93.62
69359;HTU21D;56520;49.066;8.660;2022-09-12T06:16:54;11.60;93.63
69359;HTU21D;56520;49.066;8.660;2022-09-12T06:19:21;11.68;93.62
69359;HTU21D;56520;49.066;8.660;2022-09-12T06:21:51;11.72;93.67
69359;HTU21D;56520;49.066;8.660;2022-09-12T06:24:18;11.81;93.74
69359;HTU21D;56520;49.066;8.660;2022-09-12T06:26:44;11.91;93.74
69359;HTU21D;56520;49.066;8.660;2022-09-12T06:29:10;12.00;93.67
69359;HTU21D;56520;49.066;8.660;2022-09-12T06:31:37;12.04;93.66
69359;HTU21D;56520;49.066;8.660;2022-09-12T06:34:05;12.11;93.66
69359;HTU21D;56520;49.066;8.660;2022-09-12T06:36:35;12.17;93.66
69359;HTU21D;56520;49.066;8.660;2022-09-12T06:39:04;12.25;93.65
69359;HTU21D;56520;49.066;8.660;2022-09-12T06:41:30;12.32;93.66
69359;HTU21D;56520;49.066;8.660;2022-09-12T06:43:57;12.41;93.67
69359;HTU21D;56520;49.066;8.660;2022-09-12T06:46:23;12.49;93.62
69359;HTU21D;56520;49.066;8.660;2022-09-12T06:48:49;12.60;93.59
69359;HTU21D;56520;49.066;8.660;2022-09-12T06:51:16;12.71;93.49
69359;HTU21D;56520;49.066;8.660;2022-09-12T06:53:43;12.81;93.37
69359;HTU21D;56520;49.066;8.660;2022-09-12T06:56:12;12.95;93.33
69359;HTU21D;56520;49.066;8.660;2022-09-12T06:58:38;13.07;93.33
69359;HTU21D;56520;49.066;8.660;2022-09-12T07:01:09;13.19;93.20
69359;HTU21D;56520;49.066;8.660;2022-09-12T07:03:36;13.31;93.14
69359;HTU21D;56520;49.066;8.660;2022-09-12T07:06:09;13.43;93.03
69359;HTU21D;56520;49.066;8.660;2022-09-12T07:08:36;13.54;92.85
69359;HTU21D;56520;49.066;8.660;2022-09-12T07:11:29;13.64;92.61
69359;HTU21D;56520;49.066;8.660;2022-09-12T07:13:57;13.74;92.43
69359;HTU21D;56520;49.066;8.660;2022-09-12T07:16:23;13.84;92.44
69359;HTU21D;56520;49.066;8.660;2022-09-12T07:18:53;13.94;92.35
69359;HTU21D;56520;49.066;8.660;2022-09-12T07:21:20;14.06;92.24
69359;HTU21D;56520;49.066;8.660;2022-09-12T07:23:45;14.18;92.18
69359;HTU21D;56520;49.066;8.660;2022-09-12T07:26:13;14.33;92.33
69359;HTU21D;56520;49.066;8.660;2022-09-12T07:28:39;14.48;92.08
69359;HTU21D;56520;49.066;8.660;2022-09-12T07:33:35;14.72;91.63
69359;HTU21D;56520;49.066;8.660;2022-09-12T07:36:06;14.86;91.33
69359;HTU21D;56520;49.066;8.660;2022-09-12T07:38:33;14.97;91.09
69359;HTU21D;56520;49.066;8.660;2022-09-12T07:40:58;15.09;90.90
69359;HTU21D;56520;49.066;8.660;2022-09-12T07:43:24;15.24;90.62
69359;HTU21D;56520;49.066;8.660;2022-09-12T07:45:54;15.38;90.43
69359;HTU21D;56520;49.066;8.660;2022-09-12T07:48:20;15.55;90.18
69359;HTU21D;56520;49.066;8.660;2022-09-12T07:50:45;15.69;89.92
69359;HTU21D;56520;49.066;8.660;2022-09-12T07:53:11;15.82;89.67
69359;HTU21D;56520;49.066;8.660;2022-09-12T07:55:37;15.95;89.31
69359;HTU21D;56520;49.066;8.660;2022-09-12T07:58:03;16.08;88.93
69359;HTU21D;56520;49.066;8.660;2022-09-12T08:00:28;16.24;88.71
69359;HTU21D;56520;49.066;8.660;2022-09-12T08:03:00;16.37;88.58
69359;HTU21D;56520;49.066;8.660;2022-09-12T08:05:27;16.51;88.32
69359;HTU21D;56520;49.066;8.660;2022-09-12T08:07:53;16.62;87.81
69359;HTU21D;56520;49.066;8.660;2022-09-12T08:10:19;16.74;87.57
69359;HTU21D;56520;49.066;8.660;2022-09-12T08:12:44;16.88;87.44
69359;HTU21D;56520;49.066;8.660;2022-09-12T08:15:10;17.03;87.22
69359;HTU21D;56520;49.066;8.660;2022-09-12T08:17:35;17.20;86.52
69359;HTU21D;56520;49.066;8.660;2022-09-12T08:20:01;17.32;84.25
69359;HTU21D;56520;49.066;8.660;2022-09-12T08:22:29;17.41;82.98
69359;HTU21D;56520;49.066;8.660;2022-09-12T08:24:55;17.51;82.46
69359;HTU21D;56520;49.066;8.660;2022-09-12T08:27:20;17.60;82.03
69359;HTU21D;56520;49.066;8.660;2022-09-12T08:29:46;17.67;81.53
69359;HTU21D;56520;49.066;8.660;2022-09-12T08:32:11;17.77;81.36
69359;HTU21D;56520;49.066;8.660;2022-09-12T08:34:37;17.95;81.78
69359;HTU21D;56520;49.066;8.660;2022-09-12T08:37:03;18.09;79.19
69359;HTU21D;56520;49.066;8.660;2022-09-12T08:39:28;18.21;80.27
69359;HTU21D;56520;49.066;8.660;2022-09-12T08:42:01;18.35;80.21
69359;HTU21D;56520;49.066;8.660;2022-09-12T08:47:33;18.73;78.42
69359;HTU21D;56520;49.066;8.660;2022-09-12T08:55:44;19.57;75.91
69359;HTU21D;56520;49.066;8.660;2022-09-12T08:58:19;19.81;74.68
69359;HTU21D;56520;49.066;8.660;2022-09-12T09:01:06;20.04;73.22
69359;HTU21D;56520;49.066;8.660;2022-09-12T09:06:20;20.16;72.69
69359;HTU21D;56520;49.066;8.660;2022-09-12T09:14:41;20.56;72.16
69359;HTU21D;56520;49.066;8.660;2022-09-12T09:22:44;21.15;69.38
69359;HTU21D;56520;49.066;8.660;2022-09-12T09:25:21;21.38;68.86
69359;HTU21D;56520;49.066;8.660;2022-09-12T09:27:57;21.51;66.63
69359;HTU21D;56520;49.066;8.660;2022-09-12T09:30:25;21.63;65.78
69359;HTU21D;56520;49.066;8.660;2022-09-12T09:32:59;21.95;66.82
69359;HTU21D;56520;49.066;8.660;2022-09-12T09:35:44;22.33;66.49
69359;HTU21D;56520;49.066;8.660;2022-09-12T09:38:53;22.54;64.93
69359;HTU21D;56520;49.066;8.660;2022-09-12T09:44:02;23.07;62.28
69359;HTU21D;56520;49.066;8.660;2022-09-12T09:46:27;23.36;62.09
69359;HTU21D;56520;49.066;8.660;2022-09-12T09:48:53;23.52;62.30
69359;HTU21D;56520;49.066;8.660;2022-09-12T09:51:27;23.47;60.20
69359;HTU21D;56520;49.066;8.660;2022-09-12T09:54:41;23.26;58.25
69359;HTU21D;56520;49.066;8.660;2022-09-12T09:56:46;23.08;59.07
69359;HTU21D;56520;49.066;8.660;2022-09-12T10:04:40;23.66;59.93
69359;HTU21D;56520;49.066;8.660;2022-09-12T10:07:16;24.00;58.44
69359;HTU21D;56520;49.066;8.660;2022-09-12T10:10:03;24.41;57.77
69359;HTU21D;56520;49.066;8.660;2022-09-12T10:12:29;24.59;55.06
69359;HTU21D;56520;49.066;8.660;2022-09-12T10:14:59;24.59;55.87
69359;HTU21D;56520;49.066;8.660;2022-09-12T10:17:41;24.34;53.78
69359;HTU21D;56520;49.066;8.660;2022-09-12T10:20:38;24.03;53.59
69359;HTU21D;56520;49.066;8.660;2022-09-12T10:25:53;23.89;53.97
69359;HTU21D;56520;49.066;8.660;2022-09-12T10:28:24;24.10;54.80
69359;HTU21D;56520;49.066;8.660;2022-09-12T10:30:54;24.40;54.68
69359;HTU21D;56520;49.066;8.660;2022-09-12T10:33:22;24.76;53.59
69359;HTU21D;56520;49.066;8.660;2022-09-12T10:35:52;24.97;50.88
69359;HTU21D;56520;49.066;8.660;2022-09-12T10:38:25;24.99;52.20
69359;HTU21D;56520;49.066;8.660;2022-09-12T10:41:06;24.90;53.30
69359;HTU21D;56520;49.066;8.660;2022-09-12T10:48:41;25.33;51.07
69359;HTU21D;56520;49.066;8.660;2022-09-12T10:53:50;25.61;51.25
69359;HTU21D;56520;49.066;8.660;2022-09-12T10:56:19;25.92;50.81
69359;HTU21D;56520;49.066;8.660;2022-09-12T11:07:05;26.43;48.40
69359;HTU21D;56520;49.066;8.660;2022-09-12T11:15:17;26.45;47.02
69359;HTU21D;56520;49.066;8.660;2022-09-12T11:39:55;26.82;42.61
69359;HTU21D;56520;49.066;8.660;2022-09-12T11:42:29;26.90;44.58
69359;HTU21D;56520;49.066;8.660;2022-09-12T11:45:04;26.90;45.35
69359;HTU21D;56520;49.066;8.660;2022-09-12T11:47:33;26.68;42.91
69359;HTU21D;56520;49.066;8.660;2022-09-12T11:50:03;26.51;45.84
69359;HTU21D;56520;49.066;8.660;2022-09-12T11:52:36;26.36;43.71
69359;HTU21D;56520;49.066;8.660;2022-09-12T11:55:10;26.10;43.45
69359;HTU21D;56520;49.066;8.660;2022-09-12T11:57:47;25.93;45.55
69359;HTU21D;56520;49.066;8.660;2022-09-12T12:00:19;26.08;46.28
69359;HTU21D;56520;49.066;8.660;2022-09-12T12:03:05;26.13;44.14
69359;HTU21D;56520;49.066;8.660;2022-09-12T12:05:53;26.23;44.53
69359;HTU21D;56520;49.066;8.660;2022-09-12T12:08:21;26.25;43.83
69359;HTU21D;56520;49.066;8.660;2022-09-12T12:11:00;26.31;44.38
69359;HTU21D;56520;49.066;8.660;2022-09-12T12:13:47;26.41;43.14
69359;HTU21D;56520;49.066;8.660;2022-09-12T12:16:41;26.35;42.85
69359;HTU21D;56520;49.066;8.660;2022-09-12T12:21:40;26.57;43.19
69359;HTU21D;56520;49.066;8.660;2022-09-12T12:34:42;26.55;42.33
69359;HTU21D;56520;49.066;8.660;2022-09-12T12:47:46;27.07;41.59
69359;HTU21D;56520;49.066;8.660;2022-09-12T12:52:50;27.30;40.97
69359;HTU21D;56520;49.066;8.660;2022-09-12T12:55:21;27.51;40.65
69359;HTU21D;56520;49.066;8.660;2022-09-12T12:57:50;27.68;40.74
69359;HTU21D;56520;49.066;8.660;2022-09-12T13:05:44;27.95;39.33
69359;HTU21D;56520;49.066;8.660;2022-09-12T13:08:25;28.04;38.92
69359;HTU21D;56520;49.066;8.660;2022-09-12T13:11:00;28.12;39.53
69359;HTU21D;56520;49.066;8.660;2022-09-12T13:13:35;28.12;39.02
69359;HTU21D;56520;49.066;8.660;2022-09-12T13:16:02;28.12;38.46
69359;HTU21D;56520;49.066;8.660;2022-09-12T13:21:13;27.71;38.20
69359;HTU21D;56520;49.066;8.660;2022-09-12T13:23:38;27.57;39.62
69359;HTU21D;56520;49.066;8.660;2022-09-12T13:26:21;27.73;39.68
69359;HTU21D;56520;49.066;8.660;2022-09-12T13:28:47;27.98;39.61
69359;HTU21D;56520;49.066;8.660;2022-09-12T13:31:21;28.20;39.20
69359;HTU21D;56520;49.066;8.660;2022-09-12T13:33:58;28.12;38.22
69359;HTU21D;56520;49.066;8.660;2022-09-12T13:44:26;27.91;36.58
69359;HTU21D;56520;49.066;8.660;2022-09-12T13:46:52;27.65;37.90
69359;HTU21D;56520;49.066;8.660;2022-09-12T13:49:35;27.70;39.01
69359;HTU21D;56520;49.066;8.660;2022-09-12T13:52:08;27.67;38.40
69359;HTU21D;56520;49.066;8.660;2022-09-12T13:54:38;27.87;38.59
69359;HTU21D;56520;49.066;8.660;2022-09-12T13:57:05;28.14;36.95
69359;HTU21D;56520;49.066;8.660;2022-09-12T13:59:40;28.26;36.54
69359;HTU21D;56520;49.066;8.660;2022-09-12T14:02:21;28.14;37.60
69359;HTU21D;56520;49.066;8.660;2022-09-12T14:04:48;28.11;35.91
69359;HTU21D;56520;49.066;8.660;2022-09-12T14:07:32;28.05;36.90
69359;HTU21D;56520;49.066;8.660;2022-09-12T14:10:00;28.08;36.24
69359;HTU21D;56520;49.066;8.660;2022-09-12T14:12:27;28.00;35.95
69359;HTU21D;56520;49.066;8.660;2022-09-12T14:14:54;27.81;35.97
69359;HTU21D;56520;49.066;8.660;2022-09-12T14:17:31;27.80;36.69
69359;HTU21D;56520;49.066;8.660;2022-09-12T14:19:59;27.79;36.36
69359;HTU21D;56520;49.066;8.660;2022-09-12T14:22:27;27.61;35.40
69359;HTU21D;56520;49.066;8.660;2022-09-12T14:24:55;27.59;36.29
69359;HTU21D;56520;49.066;8.660;2022-09-12T14:27:26;27.59;36.35
69359;HTU21D;56520;49.066;8.660;2022-09-12T14:30:06;27.47;36.20
69359;HTU21D;56520;49.066;8.660;2022-09-12T14:32:33;27.51;36.27
69359;HTU21D;56520;49.066;8.660;2022-09-12T14:37:37;27.17;36.27
69359;HTU21D;56520;49.066;8.660;2022-09-12T14:40:15;27.09;36.11
69359;HTU21D;56520;49.066;8.660;2022-09-12T14:42:42;27.06;36.50
69359;HTU21D;56520;49.066;8.660;2022-09-12T14:45:16;27.07;35.97
69359;HTU21D;56520;49.066;8.660;2022-09-12T14:47:47;27.05;36.87
69359;HTU21D;56520;49.066;8.660;2022-09-12T14:50:34;26.92;36.63
69359;HTU21D;56520;49.066;8.660;2022-09-12T14:53:03;26.76;36.79
69359;HTU21D;56520;49.066;8.660;2022-09-12T14:55:32;26.79;37.50
69359;HTU21D;56520;49.066;8.660;2022-09-12T14:58:26;26.89;37.46
69359;HTU21D;56520;49.066;8.660;2022-09-12T15:03:49;26.89;38.10
69359;HTU21D;56520;49.066;8.660;2022-09-12T15:06:31;26.99;38.31
69359;HTU21D;56520;49.066;8.660;2022-09-12T15:09:04;26.99;37.71
69359;HTU21D;56520;49.066;8.660;2022-09-12T15:11:30;26.93;37.53
69359;HTU21D;56520;49.066;8.660;2022-09-12T15:13:57;26.95;38.33
69359;HTU21D;56520;49.066;8.660;2022-09-12T15:16:23;26.96;38.87
69359;HTU21D;56520;49.066;8.660;2022-09-12T15:18:48;26.98;39.24
69359;HTU21D;56520;49.066;8.660;2022-09-12T15:21:18;26.97;38.63
69359;HTU21D;56520;49.066;8.660;2022-09-12T15:26:15;26.81;38.39
69359;HTU21D;56520;49.066;8.660;2022-09-12T15:28:41;26.83;38.17
69359;HTU21D;56520;49.066;8.660;2022-09-12T15:31:14;26.71;36.44
69359;HTU21D;56520;49.066;8.660;2022-09-12T15:33:40;26.47;36.79
69359;HTU21D;56520;49.066;8.660;2022-09-12T15:36:17;26.34;37.40
69359;HTU21D;56520;49.066;8.660;2022-09-12T15:38:43;26.28;37.40
69359;HTU21D;56520;49.066;8.660;2022-09-12T15:41:19;26.26;37.54
69359;HTU21D;56520;49.066;8.660;2022-09-12T15:43:46;26.13;38.04
69359;HTU21D;56520;49.066;8.660;2022-09-12T15:46:12;26.05;38.05
69359;HTU21D;56520;49.066;8.660;2022-09-12T15:48:39;26.01;38.33
69359;HTU21D;56520;49.066;8.660;2022-09-12T15:51:26;25.91;38.59
69359;HTU21D;56520;49.066;8.660;2022-09-12T15:53:51;25.72;38.82
69359;HTU21D;56520;49.066;8.660;2022-09-12T15:56:18;25.59;39.16
69359;HTU21D;56520;49.066;8.660;2022-09-12T15:58:44;25.58;39.69
69359;HTU21D;56520;49.066;8.660;2022-09-12T16:01:14;25.54;39.78
69359;HTU21D;56520;49.066;8.660;2022-09-12T16:03:39;25.53;39.97
69359;HTU21D;56520;49.066;8.660;2022-09-12T16:06:06;25.46;39.75
69359;HTU21D;56520;49.066;8.660;2022-09-12T16:08:33;25.32;39.57
69359;HTU21D;56520;49.066;8.660;2022-09-12T16:11:02;25.17;40.09
69359;HTU21D;56520;49.066;8.660;2022-09-12T16:13:28;25.09;40.57
69359;HTU21D;56520;49.066;8.660;2022-09-12T16:15:58;25.06;40.85
69359;HTU21D;56520;49.066;8.660;2022-09-12T16:18:24;25.00;41.36
69359;HTU21D;56520;49.066;8.660;2022-09-12T16:20:53;24.92;41.20
69359;HTU21D;56520;49.066;8.660;2022-09-12T16:23:19;24.86;41.49
69359;HTU21D;56520;49.066;8.660;2022-09-12T16:25:45;24.76;41.78
69359;HTU21D;56520;49.066;8.660;2022-09-12T16:28:10;24.66;41.44
69359;HTU21D;56520;49.066;8.660;2022-09-12T16:30:36;24.58;41.58
69359;HTU21D;56520;49.066;8.660;2022-09-12T16:33:02;24.50;41.71
69359;HTU21D;56520;49.066;8.660;2022-09-12T16:35:27;24.46;41.88
69359;HTU21D;56520;49.066;8.660;2022-09-12T16:37:53;24.40;42.08
69359;HTU21D;56520;49.066;8.660;2022-09-12T16:40:19;24.36;42.51
69359;HTU21D;56520;49.066;8.660;2022-09-12T16:42:45;24.31;42.68
69359;HTU21D;56520;49.066;8.660;2022-09-12T16:45:11;24.28;42.88
69359;HTU21D;56520;49.066;8.660;2022-09-12T16:47:37;24.23;43.18
69359;HTU21D;56520;49.066;8.660;2022-09-12T16:50:03;24.16;43.77
69359;HTU21D;56520;49.066;8.660;2022-09-12T16:52:29;24.08;43.97
69359;HTU21D;56520;49.066;8.660;2022-09-12T16:54:55;24.01;44.10
69359;HTU21D;56520;49.066;8.660;2022-09-12T16:57:21;23.91;44.35
69359;HTU21D;56520;49.066;8.660;2022-09-12T16:59:47;23.81;44.70
69359;HTU21D;56520;49.066;8.660;2022-09-12T17:02:13;23.71;44.99
69359;HTU21D;56520;49.066;8.660;2022-09-12T17:04:39;23.56;45.70
69359;HTU21D;56520;49.066;8.660;2022-09-12T17:07:05;23.43;46.18
69359;HTU21D;56520;49.066;8.660;2022-09-12T17:09:30;23.34;46.35
69359;HTU21D;56520;49.066;8.660;2022-09-12T17:11:56;23.27;46.67
69359;HTU21D;56520;49.066;8.660;2022-09-12T17:14:22;23.17;47.33
69359;HTU21D;56520;49.066;8.660;2022-09-12T17:16:48;23.06;48.01
69359;HTU21D;56520;49.066;8.660;2022-09-12T17:19:22;22.97;48.31
69359;HTU21D;56520;49.066;8.660;2022-09-12T17:21:50;22.85;49.24
69359;HTU21D;56520;49.066;8.660;2022-09-12T17:24:17;22.78;49.69
69359;HTU21D;56520;49.066;8.660;2022-09-12T17:26:42;22.69;49.83
69359;HTU21D;56520;49.066;8.660;2022-09-12T17:29:10;22.61;50.29
69359;HTU21D;56520;49.066;8.660;2022-09-12T17:31:36;22.51;50.96
69359;HTU21D;56520;49.066;8.660;2022-09-12T17:34:01;22.42;51.31
69359;HTU21D;56520;49.066;8.660;2022-09-12T17:36:28;22.33;51.71
69359;HTU21D;56520;49.066;8.660;2022-09-12T17:38:55;22.20;52.32
69359;HTU21D;56520;49.066;8.660;2022-09-12T17:41:23;22.07;52.83
69359;HTU21D;56520;49.066;8.660;2022-09-12T17:43:54;21.90;53.22
69359;HTU21D;56520;49.066;8.660;2022-09-12T17:46:23;21.75;53.44
69359;HTU21D;56520;49.066;8.660;2022-09-12T17:48:50;21.65;53.84
69359;HTU21D;56520;49.066;8.660;2022-09-12T17:51:16;21.54;54.10
69359;HTU21D;56520;49.066;8.660;2022-09-12T17:53:42;21.40;54.51
69359;HTU21D;56520;49.066;8.660;2022-09-12T17:56:08;21.23;55.16
69359;HTU21D;56520;49.066;8.660;2022-09-12T17:58:35;21.08;55.82
69359;HTU21D;56520;49.066;8.660;2022-09-12T18:01:11;20.94;56.34
69359;HTU21D;56520;49.066;8.660;2022-09-12T18:03:56;20.83;57.10
69359;HTU21D;56520;49.066;8.660;2022-09-12T18:06:23;20.75;57.40
69359;HTU21D;56520;49.066;8.660;2022-09-12T18:08:48;20.66;57.84
69359;HTU21D;56520;49.066;8.660;2022-09-12T18:11:15;20.58;58.09
69359;HTU21D;56520;49.066;8.660;2022-09-12T18:13:40;20.50;58.23
69359;HTU21D;56520;49.066;8.660;2022-09-12T18:16:08;20.43;58.49
69359;HTU21D;56520;49.066;8.660;2022-09-12T18:18:34;20.32;59.12
69359;HTU21D;56520;49.066;8.660;2022-09-12T18:21:01;20.24;59.56
69359;HTU21D;56520;49.066;8.660;2022-09-12T18:23:28;20.15;59.93
69359;HTU21D;56520;49.066;8.660;2022-09-12T18:25:58;20.03;60.51
69359;HTU21D;56520;49.066;8.660;2022-09-12T18:28:23;19.92;61.01
69359;HTU21D;56520;49.066;8.660;2022-09-12T18:30:49;19.84;61.33
69359;HTU21D;56520;49.066;8.660;2022-09-12T18:33:14;19.74;61.49
69359;HTU21D;56520;49.066;8.660;2022-09-12T18:35:40;19.65;61.77
69359;HTU21D;56520;49.066;8.660;2022-09-12T18:38:05;19.56;61.97